sensor_id;sensor_type;location;lat;lon;timestamp;temperature;humidity
67799;SHT30;54596;43.216;27.904;2023-04-08T00:02:03;8.80;81.26
67799;SHT30;54596;43.216;27.904;2023-04-08T00:04:28;8.75;81.46
67799;SHT30;54596;43.216;27.904;2023-04-08T00:06:55;8.75;81.65
67799;SHT30;54596;43.216;27.904;2023-04-08T00:09:21;8.75;81.59
67799;SHT30;54596;43.216;27.904;2023-04-08T00:11:48;8.72;81.38
67799;SHT30;54596;43.216;27.904;2023-04-08T00:14:14;8.72;81.19
67799;SHT30;54596;43.216;27.904;2023-04-08T00:16:42;8.71;81.12
67799;SHT30;54596;43.216;27.904;2023-04-08T00:19:08;8.71;80.36
67799;SHT30;54596;43.216;27.904;2023-04-08T00:21:34;8.64;79.92
67799;SHT30;54596;43.216;27.904;2023-04-08T00:24:00;8.64;79.83
67799;SHT30;54596;43.216;27.904;2023-04-08T00:26:25;8.58;79.62
67799;SHT30;54596;43.216;27.904;2023-04-08T00:28:51;8.54;79.55
67799;SHT30;54596;43.216;27.904;2023-04-08T00:31:17;8.47;79.80
67799;SHT30;54596;43.216;27.904;2023-04-08T00:33:42;8.45;79.75
67799;SHT30;54596;43.216;27.904;2023-04-08T00:36:09;8.48;79.48
67799;SHT30;54596;43.216;27.904;2023-04-08T00:38:38;8.45;79.36
67799;SHT30;54596;43.216;27.904;2023-04-08T00:41:04;8.40;79.37
67799;SHT30;54596;43.216;27.904;2023-04-08T00:43:29;8.47;79.20
67799;SHT30;54596;43.216;27.904;2023-04-08T00:45:57;8.40;78.86
67799;SHT30;54596;43.216;27.904;2023-04-08T00:48:24;8.31;78.80
67799;SHT30;54596;43.216;27.904;2023-04-08T00:50:50;8.30;78.52
67799;SHT30;54596;43.216;27.904;2023-04-08T00:53:18;8.26;78.63
67799;SHT30;54596;43.216;27.904;2023-04-08T00:55:44;8.23;78.43
67799;SHT30;54596;43.216;27.904;2023-04-08T00:58:10;8.20;78.45
67799;SHT30;54596;43.216;27.904;2023-04-08T01:00:39;8.17;78.51
67799;SHT30;54596;43.216;27.904;2023-04-08T01:03:26;8.20;78.37
67799;SHT30;54596;43.216;27.904;2023-04-08T01:06:19;8.23;78.19
67799;SHT30;54596;43.216;27.904;2023-04-08T01:08:46;8.19;77.83
67799;SHT30;54596;43.216;27.904;2023-04-08T01:11:14;8.23;77.83
67799;SHT30;54596;43.216;27.904;2023-04-08T01:13:41;8.20;77.55
67799;SHT30;54596;43.216;27.904;2023-04-08T01:16:13;8.19;77.39
67799;SHT30;54596;43.216;27.904;2023-04-08T01:18:43;8.16;77.69
67799;SHT30;54596;43.216;27.904;2023-04-08T01:21:10;8.16;77.64
67799;SHT30;54596;43.216;27.904;2023-04-08T01:23:50;8.19;77.69
67799;SHT30;54596;43.216;27.904;2023-04-08T01:26:22;8.23;77.80
67799;SHT30;54596;43.216;27.904;2023-04-08T01:28:52;8.21;77.46
67799;SHT30;54596;43.216;27.904;2023-04-08T01:31:20;8.23;77.26
67799;SHT30;54596;43.216;27.904;2023-04-08T01:33:46;8.23;77.44
67799;SHT30;54596;43.216;27.904;2023-04-08T01:36:13;8.24;77.22
67799;SHT30;54596;43.216;27.904;2023-04-08T01:38:40;8.21;77.50
67799;SHT30;54596;43.216;27.904;2023-04-08T01:41:08;8.21;77.45
67799;SHT30;54596;43.216;27.904;2023-04-08T01:43:35;8.19;77.86
67799;SHT30;54596;43.216;27.904;2023-04-08T01:46:03;8.20;77.81
67799;SHT30;54596;43.216;27.904;2023-04-08T01:48:30;8.21;77.39
67799;SHT30;54596;43.216;27.904;2023-04-08T01:50:56;8.24;77.43
67799;SHT30;54596;43.216;27.904;2023-04-08T01:53:22;8.23;77.70
67799;SHT30;54596;43.216;27.904;2023-04-08T01:55:51;8.19;77.97
67799;SHT30;54596;43.216;27.904;2023-04-08T01:58:20;8.21;77.86
67799;SHT30;54596;43.216;27.904;2023-04-08T02:00:46;8.17;78.06
67799;SHT30;54596;43.216;27.904;2023-04-08T02:03:13;8.16;78.13
67799;SHT30;54596;43.216;27.904;2023-04-08T02:05:41;8.14;78.50
67799;SHT30;54596;43.216;27.904;2023-04-08T02:08:06;8.20;78.01
67799;SHT30;54596;43.216;27.904;2023-04-08T02:10:33;8.23;77.58
67799;SHT30;54596;43.216;27.904;2023-04-08T02:12:59;8.21;77.59
67799;SHT30;54596;43.216;27.904;2023-04-08T02:15:27;8.16;77.68
67799;SHT30;54596;43.216;27.904;2023-04-08T02:18:07;8.14;78.04
67799;SHT30;54596;43.216;27.904;2023-04-08T02:21:09;8.17;78.30
67799;SHT30;54596;43.216;27.904;2023-04-08T02:23:38;8.17;78.41
67799;SHT30;54596;43.216;27.904;2023-04-08T02:26:07;8.21;78.38
67799;SHT30;54596;43.216;27.904;2023-04-08T02:28:38;8.26;78.80
67799;SHT30;54596;43.216;27.904;2023-04-08T02:31:04;8.23;79.34
67799;SHT30;54596;43.216;27.904;2023-04-08T02:33:32;8.23;79.81
67799;SHT30;54596;43.216;27.904;2023-04-08T02:36:01;8.21;80.29
67799;SHT30;54596;43.216;27.904;2023-04-08T02:38:28;8.19;80.34
67799;SHT30;54596;43.216;27.904;2023-04-08T02:40:54;8.16;80.74
67799;SHT30;54596;43.216;27.904;2023-04-08T02:43:20;8.11;81.32
67799;SHT30;54596;43.216;27.904;2023-04-08T02:45:46;8.11;81.51
67799;SHT30;54596;43.216;27.904;2023-04-08T02:48:12;8.11;81.50
67799;SHT30;54596;43.216;27.904;2023-04-08T02:50:37;8.07;81.50
67799;SHT30;54596;43.216;27.904;2023-04-08T02:53:06;8.06;81.31
67799;SHT30;54596;43.216;27.904;2023-04-08T02:55:31;8.03;81.25
67799;SHT30;54596;43.216;27.904;2023-04-08T02:57:58;8.00;81.31
67799;SHT30;54596;43.216;27.904;2023-04-08T03:00:23;8.00;81.37
67799;SHT30;54596;43.216;27.904;2023-04-08T03:02:51;7.96;81.46
67799;SHT30;54596;43.216;27.904;2023-04-08T03:05:17;7.90;81.50
67799;SHT30;54596;43.216;27.904;2023-04-08T03:07:44;7.86;81.43
67799;SHT30;54596;43.216;27.904;2023-04-08T03:10:09;7.83;81.23
67799;SHT30;54596;43.216;27.904;2023-04-08T03:12:35;7.82;80.98
67799;SHT30;54596;43.216;27.904;2023-04-08T03:15:04;7.76;80.96
67799;SHT30;54596;43.216;27.904;2023-04-08T03:17:31;7.74;80.59
67799;SHT30;54596;43.216;27.904;2023-04-08T03:20:00;7.69;80.22
67799;SHT30;54596;43.216;27.904;2023-04-08T03:22:26;7.65;79.05
67799;SHT30;54596;43.216;27.904;2023-04-08T03:24:51;7.62;78.34
67799;SHT30;54596;43.216;27.904;2023-04-08T03:27:18;7.57;78.42
67799;SHT30;54596;43.216;27.904;2023-04-08T03:29:43;7.52;78.41
67799;SHT30;54596;43.216;27.904;2023-04-08T03:32:11;7.48;78.14
67799;SHT30;54596;43.216;27.904;2023-04-08T03:34:37;7.46;78.19
67799;SHT30;54596;43.216;27.904;2023-04-08T03:37:03;7.41;78.44
67799;SHT30;54596;43.216;27.904;2023-04-08T03:39:30;7.40;78.71
67799;SHT30;54596;43.216;27.904;2023-04-08T03:41:55;7.38;77.57
67799;SHT30;54596;43.216;27.904;2023-04-08T03:44:21;7.40;77.28
67799;SHT30;54596;43.216;27.904;2023-04-08T03:46:48;7.38;76.95
67799;SHT30;54596;43.216;27.904;2023-04-08T03:49:13;7.35;76.72
67799;SHT30;54596;43.216;27.904;2023-04-08T03:51:39;7.31;76.84
67799;SHT30;54596;43.216;27.904;2023-04-08T03:54:04;7.27;76.97
67799;SHT30;54596;43.216;27.904;2023-04-08T03:56:33;7.23;77.06
67799;SHT30;54596;43.216;27.904;2023-04-08T03:58:58;7.28;77.19
67799;SHT30;54596;43.216;27.904;2023-04-08T04:01:25;7.27;77.56
67799;SHT30;54596;43.216;27.904;2023-04-08T04:03:52;7.33;77.87
67799;SHT30;54596;43.216;27.904;2023-04-08T04:06:18;7.41;77.55
67799;SHT30;54596;43.216;27.904;2023-04-08T04:08:45;7.46;77.47
67799;SHT30;54596;43.216;27.904;2023-04-08T04:11:11;7.55;77.29
67799;SHT30;54596;43.216;27.904;2023-04-08T04:13:37;7.62;76.82
67799;SHT30;54596;43.216;27.904;2023-04-08T04:16:04;7.72;76.53
67799;SHT30;54596;43.216;27.904;2023-04-08T04:18:29;7.82;76.29
67799;SHT30;54596;43.216;27.904;2023-04-08T04:20:56;7.89;76.34
67799;SHT30;54596;43.216;27.904;2023-04-08T04:23:21;8.00;75.97
67799;SHT30;54596;43.216;27.904;2023-04-08T04:25:50;8.09;75.77
67799;SHT30;54596;43.216;27.904;2023-04-08T04:28:16;8.23;75.55
67799;SHT30;54596;43.216;27.904;2023-04-08T04:30:41;8.31;75.38
67799;SHT30;54596;43.216;27.904;2023-04-08T04:33:08;8.41;75.44
67799;SHT30;54596;43.216;27.904;2023-04-08T04:35:33;8.51;75.51
67799;SHT30;54596;43.216;27.904;2023-04-08T04:38:00;8.64;76.08
67799;SHT30;54596;43.216;27.904;2023-04-08T04:40:25;8.68;76.33
67799;SHT30;54596;43.216;27.904;2023-04-08T04:42:51;8.76;77.23
67799;SHT30;54596;43.216;27.904;2023-04-08T04:45:17;8.82;77.28
67799;SHT30;54596;43.216;27.904;2023-04-08T04:47:42;8.93;77.60
67799;SHT30;54596;43.216;27.904;2023-04-08T04:50:14;9.06;77.80
67799;SHT30;54596;43.216;27.904;2023-04-08T04:52:41;9.17;77.46
67799;SHT30;54596;43.216;27.904;2023-04-08T04:55:07;9.32;77.41
67799;SHT30;54596;43.216;27.904;2023-04-08T04:57:33;9.32;77.43
67799;SHT30;54596;43.216;27.904;2023-04-08T04:59:58;9.46;78.15
67799;SHT30;54596;43.216;27.904;2023-04-08T05:02:23;9.62;77.46
67799;SHT30;54596;43.216;27.904;2023-04-08T05:04:49;9.66;77.33
67799;SHT30;54596;43.216;27.904;2023-04-08T05:07:18;9.85;76.99
67799;SHT30;54596;43.216;27.904;2023-04-08T05:09:43;10.04;77.09
67799;SHT30;54596;43.216;27.904;2023-04-08T05:12:09;10.21;76.84
67799;SHT30;54596;43.216;27.904;2023-04-08T05:14:34;10.35;76.54
67799;SHT30;54596;43.216;27.904;2023-04-08T05:17:00;10.46;76.26
67799;SHT30;54596;43.216;27.904;2023-04-08T05:19:26;10.50;76.28
67799;SHT30;54596;43.216;27.904;2023-04-08T05:21:51;10.72;76.11
67799;SHT30;54596;43.216;27.904;2023-04-08T05:24:17;10.81;75.74
67799;SHT30;54596;43.216;27.904;2023-04-08T05:26:42;10.83;75.69
67799;SHT30;54596;43.216;27.904;2023-04-08T05:29:07;10.99;75.45
67799;SHT30;54596;43.216;27.904;2023-04-08T05:31:34;11.22;75.03
67799;SHT30;54596;43.216;27.904;2023-04-08T05:34:00;11.27;74.65
67799;SHT30;54596;43.216;27.904;2023-04-08T05:36:25;11.34;74.54
67799;SHT30;54596;43.216;27.904;2023-04-08T05:38:51;11.62;73.63
67799;SHT30;54596;43.216;27.904;2023-04-08T05:41:20;12.05;72.84
67799;SHT30;54596;43.216;27.904;2023-04-08T05:43:45;12.22;72.42
67799;SHT30;54596;43.216;27.904;2023-04-08T05:46:12;12.67;72.62
67799;SHT30;54596;43.216;27.904;2023-04-08T05:48:37;12.91;71.96
67799;SHT30;54596;43.216;27.904;2023-04-08T05:51:03;12.60;72.66
67799;SHT30;54596;43.216;27.904;2023-04-08T05:53:28;13.31;71.72
67799;SHT30;54596;43.216;27.904;2023-04-08T05:55:54;13.49;70.35
67799;SHT30;54596;43.216;27.904;2023-04-08T05:58:21;13.15;71.39
67799;SHT30;54596;43.216;27.904;2023-04-08T06:00:46;12.79;72.43
67799;SHT30;54596;43.216;27.904;2023-04-08T06:03:12;12.59;73.57
67799;SHT30;54596;43.216;27.904;2023-04-08T06:05:38;12.84;72.94
67799;SHT30;54596;43.216;27.904;2023-04-08T06:08:04;12.81;71.09
67799;SHT30;54596;43.216;27.904;2023-04-08T06:10:29;12.56;71.74
67799;SHT30;54596;43.216;27.904;2023-04-08T06:12:55;11.93;73.87
67799;SHT30;54596;43.216;27.904;2023-04-08T06:15:20;12.04;72.68
67799;SHT30;54596;43.216;27.904;2023-04-08T06:17:46;12.32;73.17
67799;SHT30;54596;43.216;27.904;2023-04-08T06:20:11;12.73;73.21
67799;SHT30;54596;43.216;27.904;2023-04-08T06:22:38;13.05;71.48
67799;SHT30;54596;43.216;27.904;2023-04-08T06:25:05;13.55;70.28
67799;SHT30;54596;43.216;27.904;2023-04-08T06:27:31;14.07;69.28
67799;SHT30;54596;43.216;27.904;2023-04-08T06:29:56;14.57;67.70
67799;SHT30;54596;43.216;27.904;2023-04-08T06:32:22;14.83;67.02
67799;SHT30;54596;43.216;27.904;2023-04-08T06:34:48;15.26;65.22
67799;SHT30;54596;43.216;27.904;2023-04-08T06:37:13;15.57;62.78
67799;SHT30;54596;43.216;27.904;2023-04-08T06:39:39;15.80;62.39
67799;SHT30;54596;43.216;27.904;2023-04-08T06:42:05;16.33;62.56
67799;SHT30;54596;43.216;27.904;2023-04-08T06:44:31;16.84;61.21
67799;SHT30;54596;43.216;27.904;2023-04-08T06:46:57;17.19;59.06
67799;SHT30;54596;43.216;27.904;2023-04-08T06:49:23;17.43;57.75
67799;SHT30;54596;43.216;27.904;2023-04-08T06:51:49;17.26;59.14
67799;SHT30;54596;43.216;27.904;2023-04-08T06:54:14;17.02;58.73
67799;SHT30;54596;43.216;27.904;2023-04-08T06:56:40;16.95;58.04
67799;SHT30;54596;43.216;27.904;2023-04-08T06:59:05;17.20;58.37
67799;SHT30;54596;43.216;27.904;2023-04-08T07:01:31;17.12;59.31
67799;SHT30;54596;43.216;27.904;2023-04-08T07:03:56;17.44;58.42
67799;SHT30;54596;43.216;27.904;2023-04-08T07:06:22;18.09;56.99
67799;SHT30;54596;43.216;27.904;2023-04-08T07:08:47;17.98;57.28
67799;SHT30;54596;43.216;27.904;2023-04-08T07:11:13;18.25;57.16
67799;SHT30;54596;43.216;27.904;2023-04-08T07:13:38;17.42;58.40
67799;SHT30;54596;43.216;27.904;2023-04-08T07:16:04;17.70;58.43
67799;SHT30;54596;43.216;27.904;2023-04-08T07:18:31;17.69;58.53
67799;SHT30;54596;43.216;27.904;2023-04-08T07:20:57;17.60;58.46
67799;SHT30;54596;43.216;27.904;2023-04-08T07:23:23;17.49;59.10
67799;SHT30;54596;43.216;27.904;2023-04-08T07:25:49;17.98;58.67
67799;SHT30;54596;43.216;27.904;2023-04-08T07:28:15;18.25;57.85
67799;SHT30;54596;43.216;27.904;2023-04-08T07:30:41;17.98;58.23
67799;SHT30;54596;43.216;27.904;2023-04-08T07:33:06;17.19;59.52
67799;SHT30;54596;43.216;27.904;2023-04-08T07:35:32;16.02;62.58
67799;SHT30;54596;43.216;27.904;2023-04-08T07:37:58;15.77;63.99
67799;SHT30;54596;43.216;27.904;2023-04-08T07:40:23;16.22;63.12
67799;SHT30;54596;43.216;27.904;2023-04-08T07:42:50;16.61;62.94
67799;SHT30;54596;43.216;27.904;2023-04-08T07:45:16;17.26;61.59
67799;SHT30;54596;43.216;27.904;2023-04-08T07:47:41;17.33;60.92
67799;SHT30;54596;43.216;27.904;2023-04-08T07:50:08;16.95;61.39
67799;SHT30;54596;43.216;27.904;2023-04-08T07:52:34;17.77;60.71
67799;SHT30;54596;43.216;27.904;2023-04-08T07:55:00;17.80;60.07
67799;SHT30;54596;43.216;27.904;2023-04-08T07:57:26;18.41;59.23
67799;SHT30;54596;43.216;27.904;2023-04-08T07:59:51;17.42;60.70
67799;SHT30;54596;43.216;27.904;2023-04-08T08:02:17;18.01;60.10
67799;SHT30;54596;43.216;27.904;2023-04-08T08:04:44;18.49;58.93
67799;SHT30;54596;43.216;27.904;2023-04-08T08:07:09;18.23;59.10
67799;SHT30;54596;43.216;27.904;2023-04-08T08:09:36;18.56;57.72
67799;SHT30;54596;43.216;27.904;2023-04-08T08:12:01;18.37;58.29
67799;SHT30;54596;43.216;27.904;2023-04-08T08:14:27;17.89;58.93
67799;SHT30;54596;43.216;27.904;2023-04-08T08:16:53;16.52;62.15
67799;SHT30;54596;43.216;27.904;2023-04-08T08:19:19;17.05;61.55
67799;SHT30;54596;43.216;27.904;2023-04-08T08:21:45;16.59;62.16
67799;SHT30;54596;43.216;27.904;2023-04-08T08:24:10;16.01;63.67
67799;SHT30;54596;43.216;27.904;2023-04-08T08:26:36;16.18;63.52
67799;SHT30;54596;43.216;27.904;2023-04-08T08:29:04;15.54;63.98
67799;SHT30;54596;43.216;27.904;2023-04-08T08:31:30;15.84;64.17
67799;SHT30;54596;43.216;27.904;2023-04-08T08:33:56;15.08;66.23
67799;SHT30;54596;43.216;27.904;2023-04-08T08:36:21;15.18;65.34
67799;SHT30;54596;43.216;27.904;2023-04-08T08:38:47;14.49;66.48
67799;SHT30;54596;43.216;27.904;2023-04-08T08:41:12;14.37;67.67
67799;SHT30;54596;43.216;27.904;2023-04-08T08:43:38;13.85;68.62
67799;SHT30;54596;43.216;27.904;2023-04-08T08:46:06;14.28;68.56
67799;SHT30;54596;43.216;27.904;2023-04-08T08:48:35;14.45;68.46
67799;SHT30;54596;43.216;27.904;2023-04-08T08:51:07;14.26;68.46
67799;SHT30;54596;43.216;27.904;2023-04-08T08:53:33;14.35;69.21
67799;SHT30;54596;43.216;27.904;2023-04-08T08:55:58;14.33;69.39
67799;SHT30;54596;43.216;27.904;2023-04-08T08:58:27;14.47;68.79
67799;SHT30;54596;43.216;27.904;2023-04-08T09:00:52;14.18;69.75
67799;SHT30;54596;43.216;27.904;2023-04-08T09:03:27;13.93;70.35
67799;SHT30;54596;43.216;27.904;2023-04-08T09:05:56;13.52;71.50
67799;SHT30;54596;43.216;27.904;2023-04-08T09:08:33;13.53;71.92
67799;SHT30;54596;43.216;27.904;2023-04-08T09:11:19;13.81;71.64
67799;SHT30;54596;43.216;27.904;2023-04-08T09:13:46;13.84;71.29
67799;SHT30;54596;43.216;27.904;2023-04-08T09:16:13;13.43;72.18
67799;SHT30;54596;43.216;27.904;2023-04-08T09:18:41;13.46;72.75
67799;SHT30;54596;43.216;27.904;2023-04-08T09:21:09;12.84;72.76
67799;SHT30;54596;43.216;27.904;2023-04-08T09:23:45;12.86;72.29
67799;SHT30;54596;43.216;27.904;2023-04-08T09:26:13;12.93;73.08
67799;SHT30;54596;43.216;27.904;2023-04-08T09:28:40;12.93;73.35
67799;SHT30;54596;43.216;27.904;2023-04-08T09:31:23;12.94;73.33
67799;SHT30;54596;43.216;27.904;2023-04-08T09:33:51;12.83;73.95
67799;SHT30;54596;43.216;27.904;2023-04-08T09:36:17;12.79;74.06
67799;SHT30;54596;43.216;27.904;2023-04-08T09:38:43;12.67;74.33
67799;SHT30;54596;43.216;27.904;2023-04-08T09:41:12;12.53;74.78
67799;SHT30;54596;43.216;27.904;2023-04-08T09:43:46;12.75;74.45
67799;SHT30;54596;43.216;27.904;2023-04-08T09:46:16;12.62;74.83
67799;SHT30;54596;43.216;27.904;2023-04-08T09:48:55;12.94;74.55
67799;SHT30;54596;43.216;27.904;2023-04-08T09:51:23;13.10;73.88
67799;SHT30;54596;43.216;27.904;2023-04-08T09:53:58;13.25;73.57
67799;SHT30;54596;43.216;27.904;2023-04-08T09:56:30;13.22;73.47
67799;SHT30;54596;43.216;27.904;2023-04-08T09:58:59;13.10;73.66
67799;SHT30;54596;43.216;27.904;2023-04-08T10:01:38;12.84;74.44
67799;SHT30;54596;43.216;27.904;2023-04-08T10:04:08;12.84;74.54
67799;SHT30;54596;43.216;27.904;2023-04-08T10:06:37;12.53;75.27
67799;SHT30;54596;43.216;27.904;2023-04-08T10:09:03;12.55;75.24
67799;SHT30;54596;43.216;27.904;2023-04-08T10:11:29;12.32;76.06
67799;SHT30;54596;43.216;27.904;2023-04-08T10:13:55;12.05;77.20
67799;SHT30;54596;43.216;27.904;2023-04-08T10:16:24;11.93;77.61
67799;SHT30;54596;43.216;27.904;2023-04-08T10:18:55;12.07;77.20
67799;SHT30;54596;43.216;27.904;2023-04-08T10:21:37;11.93;77.99
67799;SHT30;54596;43.216;27.904;2023-04-08T10:24:09;11.84;78.24
67799;SHT30;54596;43.216;27.904;2023-04-08T10:26:43;11.93;78.30
67799;SHT30;54596;43.216;27.904;2023-04-08T10:31:47;11.77;77.97
67799;SHT30;54596;43.216;27.904;2023-04-08T10:34:16;11.79;78.62
67799;SHT30;54596;43.216;27.904;2023-04-08T10:36:43;11.83;77.76
67799;SHT30;54596;43.216;27.904;2023-04-08T10:39:09;11.70;79.02
67799;SHT30;54596;43.216;27.904;2023-04-08T10:41:43;11.84;78.19
67799;SHT30;54596;43.216;27.904;2023-04-08T10:44:16;11.66;77.12
67799;SHT30;54596;43.216;27.904;2023-04-08T10:46:44;11.25;78.82
67799;SHT30;54596;43.216;27.904;2023-04-08T10:49:11;11.28;79.53
67799;SHT30;54596;43.216;27.904;2023-04-08T10:51:37;11.32;78.78
67799;SHT30;54596;43.216;27.904;2023-04-08T10:54:07;11.11;79.16
67799;SHT30;54596;43.216;27.904;2023-04-08T10:56:34;11.22;79.50
67799;SHT30;54596;43.216;27.904;2023-04-08T10:59:00;11.35;78.91
67799;SHT30;54596;43.216;27.904;2023-04-08T11:01:26;11.56;78.98
67799;SHT30;54596;43.216;27.904;2023-04-08T11:03:52;11.39;79.50
67799;SHT30;54596;43.216;27.904;2023-04-08T11:06:17;11.31;78.82
67799;SHT30;54596;43.216;27.904;2023-04-08T11:08:44;11.43;78.93
67799;SHT30;54596;43.216;27.904;2023-04-08T11:11:10;11.58;78.45
67799;SHT30;54596;43.216;27.904;2023-04-08T11:13:38;11.59;78.53
67799;SHT30;54596;43.216;27.904;2023-04-08T11:16:06;11.45;78.73
67799;SHT30;54596;43.216;27.904;2023-04-08T11:18:38;11.32;79.00
67799;SHT30;54596;43.216;27.904;2023-04-08T11:21:08;11.32;79.76
67799;SHT30;54596;43.216;27.904;2023-04-08T11:23:35;11.22;79.67
67799;SHT30;54596;43.216;27.904;2023-04-08T11:26:00;11.24;79.98
67799;SHT30;54596;43.216;27.904;2023-04-08T11:28:27;11.34;79.85
67799;SHT30;54596;43.216;27.904;2023-04-08T11:30:54;11.40;79.59
67799;SHT30;54596;43.216;27.904;2023-04-08T11:33:19;11.65;78.84
67799;SHT30;54596;43.216;27.904;2023-04-08T11:35:49;11.66;78.72
67799;SHT30;54596;43.216;27.904;2023-04-08T11:38:20;11.63;78.76
67799;SHT30;54596;43.216;27.904;2023-04-08T11:40:58;11.72;78.83
67799;SHT30;54596;43.216;27.904;2023-04-08T11:43:24;11.79;78.52
67799;SHT30;54596;43.216;27.904;2023-04-08T11:45:50;11.70;78.34
67799;SHT30;54596;43.216;27.904;2023-04-08T11:48:16;11.55;79.22
67799;SHT30;54596;43.216;27.904;2023-04-08T11:50:43;11.36;80.15
67799;SHT30;54596;43.216;27.904;2023-04-08T11:53:16;11.45;79.15
67799;SHT30;54596;43.216;27.904;2023-04-08T11:55:42;11.31;79.34
67799;SHT30;54596;43.216;27.904;2023-04-08T11:58:08;11.08;79.93
67799;SHT30;54596;43.216;27.904;2023-04-08T12:00:33;11.10;79.57
67799;SHT30;54596;43.216;27.904;2023-04-08T12:02:59;11.39;79.27
67799;SHT30;54596;43.216;27.904;2023-04-08T12:05:24;11.28;79.10
67799;SHT30;54596;43.216;27.904;2023-04-08T12:07:50;11.24;79.39
67799;SHT30;54596;43.216;27.904;2023-04-08T12:10:16;11.35;78.34
67799;SHT30;54596;43.216;27.904;2023-04-08T12:12:41;11.38;77.92
67799;SHT30;54596;43.216;27.904;2023-04-08T12:15:07;11.15;79.13
67799;SHT30;54596;43.216;27.904;2023-04-08T12:17:33;11.11;80.13
67799;SHT30;54596;43.216;27.904;2023-04-08T12:19:59;11.11;79.92
67799;SHT30;54596;43.216;27.904;2023-04-08T12:22:25;11.18;79.02
67799;SHT30;54596;43.216;27.904;2023-04-08T12:24:50;11.21;79.70
67799;SHT30;54596;43.216;27.904;2023-04-08T12:27:16;11.18;79.75
67799;SHT30;54596;43.216;27.904;2023-04-08T12:29:42;11.20;79.80
67799;SHT30;54596;43.216;27.904;2023-04-08T12:32:10;11.10;79.67
67799;SHT30;54596;43.216;27.904;2023-04-08T12:34:37;11.06;80.13
67799;SHT30;54596;43.216;27.904;2023-04-08T12:37:02;11.06;80.24
67799;SHT30;54596;43.216;27.904;2023-04-08T12:39:28;11.14;79.21
67799;SHT30;54596;43.216;27.904;2023-04-08T12:41:53;11.07;79.48
67799;SHT30;54596;43.216;27.904;2023-04-08T12:44:19;10.97;80.03
67799;SHT30;54596;43.216;27.904;2023-04-08T12:46:45;10.89;80.50
67799;SHT30;54596;43.216;27.904;2023-04-08T12:49:10;11.07;80.04
67799;SHT30;54596;43.216;27.904;2023-04-08T12:51:38;11.01;79.93
67799;SHT30;54596;43.216;27.904;2023-04-08T12:54:05;10.92;80.88
67799;SHT30;54596;43.216;27.904;2023-04-08T12:56:31;10.90;81.11
67799;SHT30;54596;43.216;27.904;2023-04-08T12:58:59;10.83;80.45
67799;SHT30;54596;43.216;27.904;2023-04-08T13:01:27;10.77;81.22
67799;SHT30;54596;43.216;27.904;2023-04-08T13:04:02;10.83;81.40
67799;SHT30;54596;43.216;27.904;2023-04-08T13:06:28;10.93;81.43
67799;SHT30;54596;43.216;27.904;2023-04-08T13:08:54;10.99;81.47
67799;SHT30;54596;43.216;27.904;2023-04-08T13:11:19;10.89;81.65
67799;SHT30;54596;43.216;27.904;2023-04-08T13:13:45;10.92;81.63
67799;SHT30;54596;43.216;27.904;2023-04-08T13:16:13;10.93;81.98
67799;SHT30;54596;43.216;27.904;2023-04-08T13:18:39;10.96;81.57
67799;SHT30;54596;43.216;27.904;2023-04-08T13:21:07;10.89;81.41
67799;SHT30;54596;43.216;27.904;2023-04-08T13:23:33;10.89;81.72
67799;SHT30;54596;43.216;27.904;2023-04-08T13:25:59;10.75;82.68
67799;SHT30;54596;43.216;27.904;2023-04-08T13:28:24;10.79;82.57
67799;SHT30;54596;43.216;27.904;2023-04-08T13:30:50;10.86;82.47
67799;SHT30;54596;43.216;27.904;2023-04-08T13:33:16;10.89;82.44
67799;SHT30;54596;43.216;27.904;2023-04-08T13:35:41;10.86;82.42
67799;SHT30;54596;43.216;27.904;2023-04-08T13:38:07;10.90;82.60
67799;SHT30;54596;43.216;27.904;2023-04-08T13:40:32;10.89;82.28
67799;SHT30;54596;43.216;27.904;2023-04-08T13:42:59;10.90;82.57
67799;SHT30;54596;43.216;27.904;2023-04-08T13:45:26;11.01;82.05
67799;SHT30;54596;43.216;27.904;2023-04-08T13:47:51;10.90;81.77
67799;SHT30;54596;43.216;27.904;2023-04-08T13:50:16;10.76;82.73
67799;SHT30;54596;43.216;27.904;2023-04-08T13:52:42;10.89;82.53
67799;SHT30;54596;43.216;27.904;2023-04-08T13:55:12;10.89;82.72
67799;SHT30;54596;43.216;27.904;2023-04-08T13:57:37;10.84;82.68
67799;SHT30;54596;43.216;27.904;2023-04-08T14:00:03;10.97;82.42
67799;SHT30;54596;43.216;27.904;2023-04-08T14:02:29;11.07;81.93
67799;SHT30;54596;43.216;27.904;2023-04-08T14:04:55;11.07;82.04
67799;SHT30;54596;43.216;27.904;2023-04-08T14:07:20;11.10;81.66
67799;SHT30;54596;43.216;27.904;2023-04-08T14:09:46;11.10;81.82
67799;SHT30;54596;43.216;27.904;2023-04-08T14:12:11;11.07;81.79
67799;SHT30;54596;43.216;27.904;2023-04-08T14:14:37;11.08;81.61
67799;SHT30;54596;43.216;27.904;2023-04-08T14:17:02;10.99;82.02
67799;SHT30;54596;43.216;27.904;2023-04-08T14:19:28;10.94;82.32
67799;SHT30;54596;43.216;27.904;2023-04-08T14:21:54;11.04;81.76
67799;SHT30;54596;43.216;27.904;2023-04-08T14:24:19;10.90;81.63
67799;SHT30;54596;43.216;27.904;2023-04-08T14:26:45;10.89;81.26
67799;SHT30;54596;43.216;27.904;2023-04-08T14:29:10;10.92;81.89
67799;SHT30;54596;43.216;27.904;2023-04-08T14:31:37;10.94;82.17
67799;SHT30;54596;43.216;27.904;2023-04-08T14:34:03;10.93;82.41
67799;SHT30;54596;43.216;27.904;2023-04-08T14:36:29;10.94;82.23
67799;SHT30;54596;43.216;27.904;2023-04-08T14:38:56;10.80;82.69
67799;SHT30;54596;43.216;27.904;2023-04-08T14:41:21;10.76;82.81
67799;SHT30;54596;43.216;27.904;2023-04-08T14:43:47;10.72;83.20
67799;SHT30;54596;43.216;27.904;2023-04-08T14:46:13;10.72;82.73
67799;SHT30;54596;43.216;27.904;2023-04-08T14:48:39;10.63;83.14
67799;SHT30;54596;43.216;27.904;2023-04-08T14:51:05;10.50;82.89
67799;SHT30;54596;43.216;27.904;2023-04-08T14:53:31;10.50;83.68
67799;SHT30;54596;43.216;27.904;2023-04-08T14:56:00;10.45;83.18
67799;SHT30;54596;43.216;27.904;2023-04-08T14:58:26;10.32;83.48
67799;SHT30;54596;43.216;27.904;2023-04-08T15:00:53;10.35;83.64
67799;SHT30;54596;43.216;27.904;2023-04-08T15:03:19;10.34;82.96
67799;SHT30;54596;43.216;27.904;2023-04-08T15:05:46;10.22;83.64
67799;SHT30;54596;43.216;27.904;2023-04-08T15:08:15;10.25;84.03
67799;SHT30;54596;43.216;27.904;2023-04-08T15:10:41;10.22;84.04
67799;SHT30;54596;43.216;27.904;2023-04-08T15:13:06;10.20;84.30
67799;SHT30;54596;43.216;27.904;2023-04-08T15:15:41;10.14;83.88
67799;SHT30;54596;43.216;27.904;2023-04-08T15:18:16;10.14;83.66
67799;SHT30;54596;43.216;27.904;2023-04-08T15:20:43;10.14;83.38
67799;SHT30;54596;43.216;27.904;2023-04-08T15:23:09;10.07;83.34